createdAt,value
2022-08-14T00:00:18.933Z,17.40
2022-08-14T00:02:47.175Z,17.40
2022-08-14T00:05:16.592Z,17.40
2022-08-14T00:07:44.066Z,17.40
2022-08-14T00:10:52.420Z,17.40
2022-08-14T00:13:00.817Z,17.40
2022-08-14T00:15:43.520Z,17.40
2022-08-14T00:18:14.394Z,17.40
2022-08-14T00:20:42.928Z,17.40
2022-08-14T00:23:16.895Z,17.30
2022-08-14T00:25:58.622Z,17.30
2022-08-14T00:28:34.948Z,17.30
2022-08-14T00:31:03.155Z,17.30
2022-08-14T00:33:51.516Z,17.30
2022-08-14T00:36:39.386Z,17.30
2022-08-14T00:39:06.623Z,17.20
2022-08-14T00:41:36.523Z,17.10
2022-08-14T00:44:06.115Z,17.10
2022-08-14T00:46:33.488Z,17.00
2022-08-14T00:49:00.646Z,16.90
2022-08-14T00:51:36.825Z,16.90
2022-08-14T00:54:16.987Z,16.90
2022-08-14T00:56:51.315Z,16.90
2022-08-14T00:59:23.085Z,16.90
2022-08-14T01:01:49.895Z,16.90
2022-08-14T01:04:38.281Z,16.90
2022-08-14T01:07:08.165Z,17.00
2022-08-14T01:09:36.899Z,17.00
2022-08-14T01:12:05.184Z,16.90
2022-08-14T01:14:32.418Z,16.90
2022-08-14T01:16:59.173Z,16.90
2022-08-14T01:19:45.008Z,16.70
2022-08-14T01:22:18.828Z,16.70
2022-08-14T01:24:46.128Z,16.60
2022-08-14T01:27:14.277Z,16.50
2022-08-14T01:29:58.640Z,16.40
2022-08-14T01:32:27.336Z,16.30
2022-08-14T01:35:18.819Z,16.30
2022-08-14T01:37:44.525Z,16.20
2022-08-14T01:40:17.251Z,16.20
2022-08-14T01:42:47.144Z,16.30
2022-08-14T01:45:17.709Z,16.30
2022-08-14T01:47:52.069Z,16.20
2022-08-14T01:50:30.602Z,16.20
2022-08-14T01:53:01.721Z,16.10
2022-08-14T01:55:30.711Z,16.10
2022-08-14T01:58:01.649Z,16.00
2022-08-14T02:00:44.314Z,16.00
2022-08-14T02:03:15.460Z,15.90
2022-08-14T02:05:42.567Z,15.90
2022-08-14T02:08:10.878Z,15.90
2022-08-14T02:10:46.371Z,15.90
2022-08-14T02:13:16.094Z,15.80
2022-08-14T02:15:43.780Z,15.70
2022-08-14T02:18:10.707Z,15.60
2022-08-14T02:20:38.750Z,15.50
2022-08-14T02:23:08.321Z,15.40
2022-08-14T02:25:36.395Z,15.40
2022-08-14T02:28:21.991Z,15.40
2022-08-14T02:30:52.352Z,15.30
2022-08-14T02:33:22.606Z,15.30
2022-08-14T02:35:53.448Z,15.40
2022-08-14T02:38:29.480Z,15.50
2022-08-14T02:40:58.243Z,15.50
2022-08-14T02:43:36.643Z,15.60
2022-08-14T02:46:05.577Z,15.70
2022-08-14T02:49:04.277Z,15.70
2022-08-14T02:51:22.604Z,15.70
2022-08-14T02:53:50.027Z,15.70
2022-08-14T02:56:30.022Z,15.70
2022-08-14T02:59:07.309Z,15.70
2022-08-14T03:01:43.347Z,15.70
2022-08-14T03:04:11.794Z,15.70
2022-08-14T03:07:06.768Z,15.70
2022-08-14T03:10:24.510Z,15.70
2022-08-14T03:12:26.994Z,15.80
2022-08-14T03:14:58.188Z,15.90
2022-08-14T03:17:26.202Z,15.90
2022-08-14T03:19:58.458Z,15.90
2022-08-14T03:22:27.815Z,15.90
2022-08-14T03:24:56.710Z,15.90
2022-08-14T03:27:35.128Z,15.90
2022-08-14T03:30:14.596Z,15.90
2022-08-14T03:32:43.169Z,15.90
2022-08-14T03:35:10.658Z,15.90
2022-08-14T03:39:10.291Z,15.90
2022-08-14T03:40:24.746Z,15.80
2022-08-14T03:42:52.114Z,15.80
2022-08-14T03:45:34.338Z,15.80
2022-08-14T03:48:03.994Z,15.80
2022-08-14T03:50:37.724Z,15.80
2022-08-14T03:53:04.676Z,15.80
2022-08-14T03:55:31.554Z,15.80
2022-08-14T03:58:00.662Z,15.80
2022-08-14T04:00:43.182Z,15.80
2022-08-14T04:03:16.528Z,15.80
2022-08-14T04:05:48.723Z,15.90
2022-08-14T04:08:23.150Z,15.90
2022-08-14T04:10:57.124Z,15.90
2022-08-14T04:13:24.613Z,15.90
2022-08-14T04:16:01.498Z,15.90
2022-08-14T04:18:29.885Z,16.00
2022-08-14T04:20:57.414Z,16.00
2022-08-14T04:23:29.987Z,16.10
2022-08-14T04:26:00.601Z,16.20
2022-08-14T04:29:05.273Z,16.20
2022-08-14T04:31:15.529Z,16.20
2022-08-14T04:33:42.371Z,16.30
2022-08-14T04:36:16.013Z,16.30
2022-08-14T04:39:02.356Z,16.40
2022-08-14T04:41:47.424Z,16.40
2022-08-14T04:44:36.343Z,16.50
2022-08-14T04:47:16.251Z,16.60
2022-08-14T04:49:46.565Z,16.60
2022-08-14T04:52:24.918Z,16.70
2022-08-14T04:54:52.471Z,16.80
2022-08-14T04:57:21.531Z,16.80
2022-08-14T04:59:52.047Z,16.90
2022-08-14T05:02:24.801Z,17.00
2022-08-14T05:04:57.411Z,17.10
2022-08-14T05:07:46.850Z,17.20
2022-08-14T05:10:13.429Z,17.30
2022-08-14T05:13:12.981Z,17.30
2022-08-14T05:15:32.081Z,17.30
2022-08-14T05:18:17.020Z,17.30
2022-08-14T05:21:54.582Z,17.20
2022-08-14T05:23:34.970Z,17.20
2022-08-14T05:26:12.365Z,17.20
2022-08-14T05:28:44.293Z,17.20
2022-08-14T05:31:13.757Z,17.20
2022-08-14T05:33:56.462Z,17.40
2022-08-14T05:36:25.099Z,17.60
2022-08-14T05:38:53.349Z,17.80
2022-08-14T05:41:20.098Z,17.90
2022-08-14T05:43:49.537Z,18.00
2022-08-14T05:46:22.089Z,18.10
2022-08-14T05:48:49.122Z,18.10
2022-08-14T05:51:16.719Z,18.20
2022-08-14T05:53:43.616Z,18.20
2022-08-14T05:56:27.161Z,18.20
2022-08-14T05:58:55.904Z,18.30
2022-08-14T06:01:23.621Z,18.30
2022-08-14T06:03:50.801Z,18.40
2022-08-14T06:06:21.458Z,18.50
2022-08-14T06:08:48.920Z,18.40
2022-08-14T06:11:20.283Z,18.40
2022-08-14T06:13:50.706Z,18.40
2022-08-14T06:16:19.003Z,18.30
2022-08-14T06:18:52.365Z,18.40
2022-08-14T06:21:20.883Z,18.50
2022-08-14T06:23:49.180Z,18.60
2022-08-14T06:26:16.300Z,18.80
2022-08-14T06:28:47.927Z,18.90
2022-08-14T06:31:19.349Z,19.00
2022-08-14T06:35:10.161Z,19.00
2022-08-14T06:36:35.980Z,19.20
2022-08-14T06:39:02.810Z,19.40
2022-08-14T06:41:59.406Z,19.60
2022-08-14T06:44:16.297Z,19.80
2022-08-14T06:46:43.064Z,20.10
2022-08-14T06:49:16.929Z,20.10
2022-08-14T06:51:46.115Z,20.10
2022-08-14T06:54:13.258Z,20.20
2022-08-14T06:56:40.054Z,20.30
2022-08-14T06:59:19.550Z,20.50
2022-08-14T07:02:05.187Z,20.80
2022-08-14T07:04:51.277Z,21.00
2022-08-14T07:07:18.041Z,21.10
2022-08-14T07:09:51.058Z,21.30
2022-08-14T07:12:54.152Z,21.50
2022-08-14T07:15:05.429Z,21.70
2022-08-14T07:17:32.263Z,21.70
2022-08-14T07:20:02.041Z,22.20
2022-08-14T07:22:32.880Z,22.60
2022-08-14T07:25:15.697Z,22.80
2022-08-14T07:27:43.508Z,22.60
2022-08-14T07:30:34.566Z,22.40
2022-08-14T07:32:57.777Z,22.30
2022-08-14T07:35:25.158Z,22.00
2022-08-14T07:38:05.985Z,22.00
2022-08-14T07:40:35.462Z,22.10
2022-08-14T07:43:14.021Z,22.00
2022-08-14T07:45:41.844Z,22.00
2022-08-14T07:48:09.215Z,22.20
2022-08-14T07:50:42.954Z,22.40
2022-08-14T07:53:13.841Z,22.50
2022-08-14T07:55:41.803Z,22.60
2022-08-14T07:58:30.377Z,22.50
2022-08-14T08:00:56.561Z,22.70
2022-08-14T08:03:24.759Z,22.80
2022-08-14T08:05:55.573Z,23.00
2022-08-14T08:08:26.859Z,23.10
2022-08-14T08:11:03.276Z,23.50
2022-08-14T08:13:32.508Z,23.70
2022-08-14T08:16:02.459Z,23.80
2022-08-14T08:18:30.952Z,24.00
2022-08-14T08:20:59.560Z,24.10
2022-08-14T08:23:34.397Z,24.20
2022-08-14T08:26:10.482Z,24.50
2022-08-14T08:28:37.440Z,24.40
2022-08-14T08:31:06.069Z,24.70
2022-08-14T08:33:37.581Z,25.20
2022-08-14T08:36:06.730Z,25.40
2022-08-14T08:39:18.838Z,25.30
2022-08-14T08:41:22.215Z,25.40
2022-08-14T08:43:51.112Z,25.60
2022-08-14T08:46:21.334Z,25.30
2022-08-14T08:48:53.626Z,25.30
2022-08-14T08:51:22.049Z,25.00
2022-08-14T08:53:59.459Z,24.90
2022-08-14T08:56:40.175Z,24.90
2022-08-14T08:59:18.237Z,24.90
2022-08-14T09:01:51.475Z,25.00
2022-08-14T09:04:24.324Z,25.00
2022-08-14T09:06:59.995Z,24.70
2022-08-14T09:09:54.175Z,25.20
2022-08-14T09:12:32.329Z,25.30
2022-08-14T09:15:00.655Z,25.30
2022-08-14T09:17:27.563Z,25.50
2022-08-14T09:19:54.582Z,25.60
2022-08-14T09:22:33.058Z,25.60
2022-08-14T09:25:04.271Z,25.70
2022-08-14T09:27:34.599Z,25.80
2022-08-14T09:30:02.067Z,25.60
2022-08-14T09:32:58.965Z,25.40
2022-08-14T09:35:42.431Z,25.00
2022-08-14T09:38:25.714Z,25.00
2022-08-14T09:40:59.293Z,25.20
2022-08-14T09:43:29.549Z,25.30
2022-08-14T09:45:58.413Z,25.30
2022-08-14T09:48:30.957Z,25.30
2022-08-14T09:54:12.554Z,25.30
2022-08-14T09:56:31.135Z,25.10
2022-08-14T09:58:58.861Z,25.00
2022-08-14T10:01:35.677Z,24.90
2022-08-14T10:04:06.295Z,24.80
2022-08-14T10:06:44.865Z,24.70
2022-08-14T10:09:16.857Z,24.70
2022-08-14T10:11:58.759Z,24.70
2022-08-14T10:14:36.069Z,24.70
2022-08-14T10:17:05.246Z,25.10
2022-08-14T10:19:35.804Z,25.40
2022-08-14T10:23:11.910Z,25.60
2022-08-14T10:24:55.812Z,25.60
2022-08-14T10:27:23.253Z,25.70
2022-08-14T10:29:50.787Z,25.80
2022-08-14T10:32:28.368Z,26.10
2022-08-14T10:35:04.208Z,26.20
2022-08-14T10:37:38.468Z,26.00
2022-08-14T10:40:38.885Z,25.80
2022-08-14T10:42:56.064Z,25.80
2022-08-14T10:45:24.281Z,25.70
2022-08-14T10:48:08.261Z,25.70
2022-08-14T10:50:40.984Z,25.70
2022-08-14T10:53:08.076Z,25.70
2022-08-14T10:55:39.073Z,25.50
2022-08-14T10:58:12.571Z,25.40
2022-08-14T11:00:56.663Z,25.60
2022-08-14T11:03:26.813Z,25.60
2022-08-14T11:06:13.735Z,25.80
2022-08-14T11:08:41.252Z,25.70
2022-08-14T11:11:08.717Z,25.40
2022-08-14T11:13:38.213Z,25.70
2022-08-14T11:16:05.132Z,25.90
2022-08-14T11:18:40.343Z,26.00
2022-08-14T11:21:08.407Z,26.30
2022-08-14T11:23:39.618Z,26.40
2022-08-14T11:26:08.605Z,26.20
2022-08-14T11:28:46.395Z,26.40
2022-08-14T11:31:17.817Z,25.90
2022-08-14T11:33:48.075Z,25.60
2022-08-14T11:36:18.306Z,25.50
2022-08-14T11:38:46.027Z,25.50
2022-08-14T11:41:17.138Z,25.40
2022-08-14T11:43:56.034Z,25.30
2022-08-14T11:46:29.573Z,25.10
2022-08-14T11:49:03.653Z,24.90
2022-08-14T11:51:35.935Z,24.70
2022-08-14T11:54:19.789Z,24.70
2022-08-14T11:56:49.205Z,24.70
2022-08-14T11:59:18.040Z,25.10
2022-08-14T12:01:45.572Z,25.60
2022-08-14T12:04:32.394Z,26.20
2022-08-14T12:07:00.665Z,26.90
2022-08-14T12:09:29.536Z,27.20
2022-08-14T12:11:57.661Z,27.50
2022-08-14T12:14:34.608Z,27.80
2022-08-14T12:17:09.619Z,27.70
2022-08-14T12:19:50.865Z,27.50
2022-08-14T12:22:32.251Z,27.50
2022-08-14T12:24:59.778Z,27.50
2022-08-14T12:27:41.300Z,27.60
2022-08-14T12:30:09.466Z,27.90
2022-08-14T12:32:38.615Z,28.40
2022-08-14T12:35:05.956Z,28.60
2022-08-14T12:37:32.788Z,28.50
2022-08-14T12:40:08.648Z,28.90
2022-08-14T12:42:38.678Z,28.90
2022-08-14T12:45:12.283Z,28.60
2022-08-14T12:47:45.026Z,28.80
2022-08-14T12:50:20.189Z,28.30
2022-08-14T12:52:58.764Z,27.90
2022-08-14T12:56:22.108Z,27.70
2022-08-14T12:58:29.475Z,27.70
2022-08-14T13:01:20.745Z,27.60
2022-08-14T13:03:48.037Z,28.00
2022-08-14T13:06:19.929Z,28.30
2022-08-14T13:08:52.859Z,28.00
2022-08-14T13:11:23.915Z,27.90
2022-08-14T13:13:56.061Z,27.90
2022-08-14T13:16:37.712Z,27.70
2022-08-14T13:19:09.711Z,27.60
2022-08-14T13:22:05.090Z,27.80
2022-08-14T13:24:27.782Z,27.90
2022-08-14T13:26:58.844Z,28.00
2022-08-14T13:29:29.668Z,27.70
2022-08-14T13:32:00.447Z,28.00
2022-08-14T13:34:31.517Z,28.20
2022-08-14T13:37:03.596Z,28.30
2022-08-14T13:39:32.129Z,28.90
2022-08-14T13:42:08.194Z,28.90
2022-08-14T13:44:35.631Z,28.80
2022-08-14T13:47:06.104Z,29.00
2022-08-14T13:49:56.752Z,28.80
2022-08-14T13:52:51.828Z,28.60
2022-08-14T13:55:13.425Z,28.10
2022-08-14T13:57:49.462Z,27.70
2022-08-14T14:00:32.702Z,27.50
2022-08-14T14:03:00.903Z,27.30
2022-08-14T14:05:52.797Z,27.20
2022-08-14T14:08:18.992Z,27.30
2022-08-14T14:11:04.187Z,27.30
2022-08-14T14:13:31.891Z,27.30
2022-08-14T14:16:02.262Z,27.70
2022-08-14T14:18:35.342Z,28.40
2022-08-14T14:21:02.817Z,29.20
2022-08-14T14:23:30.511Z,29.40
2022-08-14T14:25:59.623Z,29.80
2022-08-14T14:28:30.554Z,30.00
2022-08-14T14:31:01.093Z,30.20
2022-08-14T14:33:49.378Z,30.10
2022-08-14T14:36:20.714Z,29.30
2022-08-14T14:38:50.992Z,28.60
2022-08-14T14:41:20.549Z,27.80
2022-08-14T14:43:49.239Z,27.10
2022-08-14T14:46:19.205Z,26.60
2022-08-14T14:48:54.022Z,26.00
2022-08-14T14:51:21.525Z,25.70
2022-08-14T14:53:48.518Z,25.60
2022-08-14T14:56:47.641Z,25.10
2022-08-14T14:59:01.977Z,25.00
2022-08-14T15:01:28.782Z,24.70
2022-08-14T15:03:58.433Z,24.60
2022-08-14T15:06:28.871Z,24.50
2022-08-14T15:08:59.549Z,24.40
2022-08-14T15:11:30.301Z,24.30
2022-08-14T15:13:57.504Z,24.20
2022-08-14T15:16:24.740Z,24.30
2022-08-14T15:18:51.664Z,24.30
2022-08-14T15:21:20.850Z,24.20
2022-08-14T15:23:47.766Z,24.30
2022-08-14T15:26:30.931Z,24.30
2022-08-14T15:29:02.859Z,24.30
2022-08-14T15:31:32.162Z,24.40
2022-08-14T15:34:46.167Z,24.40
2022-08-14T15:36:58.887Z,24.60
2022-08-14T15:39:25.729Z,24.70
2022-08-14T15:42:00.562Z,24.80
2022-08-14T15:44:32.457Z,24.80
2022-08-14T15:47:06.120Z,24.50
2022-08-14T15:49:35.112Z,24.20
2022-08-14T15:52:03.999Z,24.10
2022-08-14T15:54:31.412Z,24.10
2022-08-14T15:56:59.044Z,24.20
2022-08-14T15:59:26.122Z,24.10
2022-08-14T16:01:55.121Z,24.10
2022-08-14T16:04:23.747Z,24.20
2022-08-14T16:06:54.535Z,24.20
2022-08-14T16:09:22.828Z,24.10
2022-08-14T16:11:53.667Z,24.10
2022-08-14T16:14:21.538Z,24.00
2022-08-14T16:17:00.564Z,24.00
2022-08-14T16:19:44.113Z,24.00
2022-08-14T16:22:58.274Z,24.00
2022-08-14T16:25:03.396Z,24.00
2022-08-14T16:27:39.188Z,24.10
2022-08-14T16:30:10.794Z,24.10
2022-08-14T16:32:55.113Z,24.20
2022-08-14T16:35:24.364Z,24.00
2022-08-14T16:37:53.140Z,24.00
2022-08-14T16:43:04.767Z,23.80
2022-08-14T16:45:43.900Z,23.80
2022-08-14T16:48:55.141Z,23.70
2022-08-14T16:50:57.799Z,23.80
2022-08-14T16:53:27.525Z,23.80
2022-08-14T16:56:09.259Z,23.80
2022-08-14T16:58:47.150Z,23.70
2022-08-14T17:01:22.986Z,23.50
2022-08-14T17:03:53.653Z,23.30
2022-08-14T17:06:49.323Z,23.20
2022-08-14T17:09:30.542Z,23.00
2022-08-14T17:12:07.421Z,22.90
2022-08-14T17:15:03.367Z,22.80
2022-08-14T17:18:05.623Z,22.70
2022-08-14T17:20:54.802Z,22.50
2022-08-14T17:23:19.872Z,22.40
2022-08-14T17:25:51.284Z,22.40
2022-08-14T17:28:50.632Z,22.30
2022-08-14T17:31:07.961Z,22.30
2022-08-14T17:33:40.720Z,22.20
2022-08-14T17:36:20.832Z,22.10
2022-08-14T17:39:00.077Z,22.00
2022-08-14T17:41:36.233Z,21.90
2022-08-14T17:44:33.975Z,21.80
2022-08-14T17:47:13.202Z,21.70
2022-08-14T17:49:44.719Z,21.60
2022-08-14T17:52:17.134Z,21.50
2022-08-14T17:54:48.579Z,21.50
2022-08-14T17:57:25.860Z,21.40
2022-08-14T17:59:55.738Z,21.40
2022-08-14T18:02:31.440Z,21.30
2022-08-14T18:04:59.412Z,21.20
2022-08-14T18:07:59.396Z,21.10
2022-08-14T18:10:51.867Z,21.10
2022-08-14T18:13:01.825Z,21.00
2022-08-14T18:15:37.340Z,20.80
2022-08-14T18:18:08.993Z,20.50
2022-08-14T18:21:23.643Z,20.40
2022-08-14T18:23:24.089Z,20.30
2022-08-14T18:25:52.314Z,20.10
2022-08-14T18:28:48.121Z,20.00
2022-08-14T18:31:23.353Z,19.90
2022-08-14T18:33:53.636Z,19.70
2022-08-14T18:36:47.784Z,19.60
2022-08-14T18:39:21.167Z,19.40
2022-08-14T18:41:49.950Z,19.30
2022-08-14T18:44:50.406Z,19.20
2022-08-14T18:47:21.795Z,19.10
2022-08-14T18:50:27.560Z,19.00
2022-08-14T18:53:05.035Z,19.00
2022-08-14T18:55:52.795Z,18.90
2022-08-14T18:58:27.898Z,18.90
2022-08-14T19:00:59.517Z,18.70
2022-08-14T19:03:56.303Z,18.60
2022-08-14T19:06:48.007Z,18.50
2022-08-14T19:09:41.581Z,18.60
2022-08-14T19:12:15.194Z,18.60
2022-08-14T19:14:43.483Z,18.50
2022-08-14T19:17:25.213Z,18.50
2022-08-14T19:20:03.179Z,18.40
2022-08-14T19:22:30.683Z,18.40
2022-08-14T19:24:57.414Z,18.30
2022-08-14T19:27:26.407Z,18.30
2022-08-14T19:30:22.599Z,18.30
2022-08-14T19:32:53.206Z,18.10
2022-08-14T19:35:55.763Z,18.00
2022-08-14T19:38:47.074Z,17.90
2022-08-14T19:41:15.369Z,17.70
2022-08-14T19:43:50.758Z,17.70
2022-08-14T19:46:38.568Z,17.60
2022-08-14T19:49:13.453Z,17.60
2022-08-14T19:51:41.991Z,17.70
2022-08-14T19:54:13.695Z,17.60
2022-08-14T19:56:45.036Z,17.60
2022-08-14T19:59:17.470Z,17.50
2022-08-14T20:01:44.686Z,17.50
2022-08-14T20:04:45.159Z,17.50
2022-08-14T20:07:00.788Z,17.40
2022-08-14T20:11:05.636Z,17.30
2022-08-14T20:12:29.296Z,17.20
2022-08-14T20:15:03.740Z,17.10
2022-08-14T20:17:40.121Z,17.10
2022-08-14T20:20:16.649Z,17.10
2022-08-14T20:22:57.434Z,17.20
2022-08-14T20:25:35.411Z,17.20
2022-08-14T20:28:29.691Z,17.20
2022-08-14T20:31:12.338Z,17.00
2022-08-14T20:34:00.383Z,16.80
2022-08-14T20:36:30.081Z,16.90
2022-08-14T20:38:57.477Z,16.90
2022-08-14T20:41:24.358Z,16.90
2022-08-14T20:44:09.480Z,16.90
2022-08-14T20:46:42.265Z,16.90
2022-08-14T20:49:10.556Z,16.90
2022-08-14T20:51:43.420Z,16.70
2022-08-14T20:54:33.773Z,16.60
2022-08-14T20:57:05.718Z,16.70
2022-08-14T20:59:37.877Z,16.80
2022-08-14T21:02:30.538Z,16.80
2022-08-14T21:05:04.720Z,16.80
2022-08-14T21:07:44.541Z,16.90
2022-08-14T21:10:33.909Z,17.10
2022-08-14T21:13:26.661Z,17.20
2022-08-14T21:15:58.037Z,17.20
2022-08-14T21:18:26.005Z,17.10
2022-08-14T21:20:57.214Z,16.90
2022-08-14T21:23:23.964Z,16.80
2022-08-14T21:25:50.770Z,16.60
2022-08-14T21:28:30.259Z,16.50
2022-08-14T21:31:01.579Z,16.50
2022-08-14T21:33:28.446Z,16.40
2022-08-14T21:35:57.206Z,16.30
2022-08-14T21:38:33.462Z,16.20
2022-08-14T21:41:02.293Z,16.10
2022-08-14T21:43:52.357Z,16.00
2022-08-14T21:46:19.206Z,15.90
2022-08-14T21:48:46.321Z,15.80
2022-08-14T21:51:53.647Z,15.80
2022-08-14T21:54:00.624Z,15.80
2022-08-14T21:56:38.947Z,15.80
2022-08-14T21:59:08.311Z,16.00
2022-08-14T22:02:00.831Z,16.10
2022-08-14T22:04:34.782Z,16.00
2022-08-14T22:07:10.456Z,16.00
2022-08-14T22:09:39.000Z,16.00
2022-08-14T22:12:10.427Z,16.00
2022-08-14T22:14:43.710Z,16.00
2022-08-14T22:17:13.183Z,16.00
2022-08-14T22:19:54.973Z,16.00
2022-08-14T22:22:23.247Z,16.10
2022-08-14T22:24:53.165Z,16.10
2022-08-14T22:27:21.181Z,16.10
2022-08-14T22:29:54.968Z,16.20
2022-08-14T22:32:35.316Z,16.10
2022-08-14T22:35:12.161Z,15.90
2022-08-14T22:37:44.626Z,15.60
2022-08-14T22:40:46.398Z,15.50
2022-08-14T22:43:00.351Z,15.50
2022-08-14T22:45:36.361Z,15.50
2022-08-14T22:48:03.853Z,15.60
2022-08-14T22:50:33.850Z,15.60
2022-08-14T22:53:03.414Z,15.70
2022-08-14T22:55:30.422Z,15.70
2022-08-14T22:58:03.739Z,15.80
2022-08-14T23:00:33.112Z,15.70
2022-08-14T23:03:01.836Z,15.60
2022-08-14T23:05:38.667Z,15.70
2022-08-14T23:08:58.657Z,15.70
2022-08-14T23:10:53.472Z,15.70
2022-08-14T23:13:20.503Z,15.60
2022-08-14T23:15:47.572Z,15.50
2022-08-14T23:18:14.757Z,15.40
2022-08-14T23:20:44.252Z,15.40
2022-08-14T23:23:12.598Z,15.30
2022-08-14T23:25:57.634Z,15.40
2022-08-14T23:28:34.191Z,15.50
2022-08-14T23:31:16.219Z,15.50
2022-08-14T23:34:01.872Z,15.40
2022-08-14T23:36:37.513Z,15.50
2022-08-14T23:39:20.633Z,15.50
2022-08-14T23:41:53.063Z,15.40
2022-08-14T23:44:21.591Z,15.30
2022-08-14T23:46:48.848Z,15.10
2022-08-14T23:49:19.620Z,15.00
2022-08-14T23:51:48.882Z,15.00
2022-08-14T23:54:48.276Z,14.90
2022-08-14T23:57:19.295Z,14.80
2022-08-14T23:59:54.929Z,14.70
